createdAt,value
2022-09-03T00:07:10.245Z,13.63
2022-09-03T00:18:11.562Z,13.41
2022-09-03T00:29:13.068Z,13.47
2022-09-03T00:40:18.428Z,13.22
2022-09-03T00:51:19.013Z,13.24
2022-09-03T01:02:21.469Z,13.21
2022-09-03T01:13:24.550Z,12.86
2022-09-03T01:24:24.026Z,12.85
2022-09-03T01:35:17.767Z,12.71
2022-09-03T01:45:55.017Z,12.64
2022-09-03T01:56:54.309Z,12.63
2022-09-03T02:07:31.994Z,12.49
2022-09-03T02:18:20.121Z,12.44
2022-09-03T02:29:20.316Z,12.24
2022-09-03T02:40:23.726Z,12.31
2022-09-03T02:51:27.131Z,12.09
2022-09-03T03:02:28.843Z,12.00
2022-09-03T03:13:32.383Z,12.15
2022-09-03T03:24:35.796Z,12.05
2022-09-03T03:35:38.366Z,12.09
2022-09-03T03:46:40.643Z,11.89
2022-09-03T03:57:44.485Z,11.81
2022-09-03T04:08:47.876Z,11.78
2022-09-03T04:19:52.383Z,12.05
2022-09-03T04:30:55.386Z,11.78
2022-09-03T04:41:54.033Z,11.86
2022-09-03T04:52:51.241Z,12.06
2022-09-03T05:03:52.888Z,12.12
2022-09-03T05:14:54.554Z,12.46
2022-09-03T05:26:04.882Z,12.86
2022-09-03T05:37:11.119Z,13.17
2022-09-03T05:48:13.454Z,13.19
2022-09-03T05:59:17.132Z,13.38
2022-09-03T06:10:24.953Z,13.77
2022-09-03T06:21:22.532Z,14.11
2022-09-03T06:32:00.773Z,14.64
2022-09-03T06:43:03.561Z,15.12
2022-09-03T06:53:42.250Z,15.59
2022-09-03T07:04:43.148Z,16.10
2022-09-03T07:15:42.082Z,16.55
2022-09-03T07:26:45.397Z,17.02
2022-09-03T07:37:44.931Z,17.63
2022-09-03T07:48:48.126Z,18.14
2022-09-03T07:59:48.699Z,18.37
2022-09-03T08:10:48.438Z,18.87
2022-09-03T08:21:49.898Z,19.28
2022-09-03T08:32:50.950Z,19.71
2022-09-03T08:43:49.707Z,19.86
2022-09-03T08:54:51.698Z,20.46
2022-09-03T09:05:53.104Z,20.69
2022-09-03T09:16:54.351Z,21.08
2022-09-03T09:27:54.691Z,21.11
2022-09-03T09:38:53.846Z,21.36
2022-09-03T09:49:28.502Z,21.51
2022-09-03T10:00:27.828Z,22.10
2022-09-03T10:11:17.887Z,22.53
2022-09-03T10:22:01.915Z,22.68
2022-09-03T10:32:43.806Z,22.46
2022-09-03T10:43:40.466Z,23.61
2022-09-03T10:54:19.057Z,24.75
2022-09-03T11:04:57.786Z,25.12
2022-09-03T11:15:37.738Z,25.02
2022-09-03T11:26:37.192Z,23.65
2022-09-03T11:37:37.290Z,27.94
2022-09-03T11:48:36.461Z,28.02
2022-09-03T11:59:31.435Z,27.89
2022-09-03T12:10:31.108Z,29.78
2022-09-03T12:21:32.568Z,29.68
2022-09-03T12:32:30.784Z,30.48
2022-09-03T12:43:38.967Z,30.56
2022-09-03T12:54:07.917Z,29.36
2022-09-03T13:04:40.554Z,30.48
2022-09-03T13:15:37.658Z,28.88
2022-09-03T13:26:16.226Z,30.55
2022-09-03T13:36:49.768Z,30.11
2022-09-03T13:47:50.567Z,30.18
2022-09-03T13:58:51.935Z,31.12
2022-09-03T14:09:48.345Z,28.01
2022-09-03T14:20:39.461Z,26.83
2022-09-03T14:31:32.069Z,27.72
2022-09-03T14:42:22.211Z,26.97
2022-09-03T14:53:17.811Z,25.72
2022-09-03T15:04:16.196Z,25.83
2022-09-03T15:15:12.792Z,25.67
2022-09-03T15:26:09.496Z,25.00
2022-09-03T15:37:08.842Z,24.83
2022-09-03T15:48:05.382Z,24.40
2022-09-03T15:58:53.250Z,23.90
2022-09-03T16:09:26.633Z,23.48
2022-09-03T16:20:10.591Z,23.27
2022-09-03T16:30:44.849Z,23.12
2022-09-03T16:41:44.453Z,22.81
2022-09-03T16:52:41.286Z,22.52
2022-09-03T17:03:35.520Z,22.24
2022-09-03T17:14:35.658Z,21.81
2022-09-03T17:25:19.729Z,21.44
2022-09-03T17:35:55.031Z,21.27
2022-09-03T17:46:31.199Z,21.21
2022-09-03T17:57:08.183Z,21.14
2022-09-03T18:07:59.554Z,21.02
2022-09-03T18:18:35.030Z,20.71
2022-09-03T18:29:21.081Z,20.62
2022-09-03T18:40:19.763Z,20.46
2022-09-03T18:51:04.269Z,20.19
2022-09-03T19:01:54.407Z,19.82
2022-09-03T19:12:58.728Z,19.82
2022-09-03T19:23:49.275Z,19.39
2022-09-03T19:34:49.665Z,19.09
2022-09-03T19:45:49.097Z,18.94
2022-09-03T19:56:30.920Z,18.68
2022-09-03T20:07:17.794Z,18.61
2022-09-03T20:18:17.429Z,18.34
2022-09-03T20:29:14.189Z,18.22
2022-09-03T20:39:51.078Z,18.00
2022-09-03T20:50:48.710Z,18.00
2022-09-03T21:01:25.842Z,18.04
2022-09-03T21:12:18.308Z,17.95
2022-09-03T21:23:16.645Z,18.03
2022-09-03T21:34:09.577Z,17.95
2022-09-03T21:45:04.839Z,17.94
2022-09-03T21:56:03.713Z,18.02
2022-09-03T22:07:04.193Z,18.13
2022-09-03T22:17:43.863Z,17.98
2022-09-03T22:28:42.082Z,18.10
2022-09-03T22:39:42.500Z,17.98
2022-09-03T22:50:41.209Z,18.14
2022-09-03T23:01:42.475Z,18.09
2022-09-03T23:12:41.590Z,18.16
2022-09-03T23:23:43.680Z,18.39
2022-09-03T23:34:45.660Z,18.37
2022-09-03T23:45:45.550Z,18.59
2022-09-03T23:56:45.442Z,18.46
